Time;durP1;ratioP1;P1;durP2;ratioP2;P2;SDS_P1;SDS_P2;PMS_P1;PMS_P2;Temp;Humidity;BMP_temperature;BMP_pressure;BME280_temperature;BME280_humidity;BME280_pressure;Samples;Min_cycle;Max_cycle;Signal;HPM_P1;HPM_P2
2023/03/19 00:01:43;;;;;;;63.60;49.35;;;27.50;80.20;;;;;;1854190;76;21776;-83
2023/03/19 00:04:39;;;;;;;60.08;50.33;;;27.50;80.00;;;;;;1899762;74;21224;-83
2023/03/19 00:07:10;;;;;;;66.53;50.92;;;27.50;79.70;;;;;;1873647;75;21209;-83
2023/03/19 00:09:41;;;;;;;62.25;50.73;;;27.50;79.50;;;;;;1841055;77;21176;-82
2023/03/19 00:12:12;;;;;;;65.78;53.23;;;27.50;79.40;;;;;;1937176;73;21196;-82
2023/03/19 00:14:43;;;;;;;66.17;52.23;;;27.50;79.10;;;;;;1865500;75;22004;-83
2023/03/19 00:17:33;;;;;;;56.92;49.00;;;27.50;78.70;;;;;;1898388;74;21657;-84
2023/03/19 00:20:21;;;;;;;61.30;49.75;;;27.60;77.80;;;;;;1829612;77;21244;-84
2023/03/19 00:23:11;;;;;;;58.90;49.88;;;27.60;76.70;;;;;;1834338;77;21181;-83
2023/03/19 00:26:00;;;;;;;59.45;47.65;;;27.60;75.70;;;;;;1768789;80;21227;-83
2023/03/19 00:28:50;;;;;;;63.38;47.17;;;27.70;75.30;;;;;;1849606;77;21303;-83
2023/03/19 00:31:21;;;;;;;61.80;49.73;;;27.70;74.90;;;;;;1851029;75;21696;-84
2023/03/19 00:33:52;;;;;;;62.88;48.10;;;27.70;74.80;;;;;;1832640;77;21231;-84
2023/03/19 00:36:24;;;;;;;67.35;50.33;;;27.70;74.50;;;;;;1862148;75;21660;-84
2023/03/19 00:38:56;;;;;;;66.85;51.58;;;27.80;74.10;;;;;;1878965;75;21465;-83
2023/03/19 00:41:27;;;;;;;65.00;50.75;;;27.80;74.40;;;;;;1879941;75;21609;-85
2023/03/19 00:43:59;;;;;;;64.07;52.00;;;27.80;74.40;;;;;;1836066;78;21170;-84
2023/03/19 00:46:30;;;;;;;65.17;52.40;;;27.90;74.50;;;;;;1863284;77;21609;-83
2023/03/19 00:49:25;;;;;;;63.42;50.80;;;27.90;74.30;;;;;;1856240;75;21248;-83
2023/03/19 00:52:15;;;;;;;60.80;49.95;;;27.90;74.70;;;;;;1890589;75;21153;-83
2023/03/19 00:54:46;;;;;;;64.67;51.33;;;28.00;74.20;;;;;;1884663;75;21189;-84
2023/03/19 00:57:17;;;;;;;65.90;52.43;;;28.00;73.50;;;;;;1885183;75;21157;-84
2023/03/19 00:59:48;;;;;;;66.28;50.45;;;28.00;73.90;;;;;;1863702;77;21415;-84
2023/03/19 01:02:19;;;;;;;63.73;50.75;;;28.10;74.00;;;;;;1894945;75;21308;-84
2023/03/19 01:04:50;;;;;;;67.47;53.38;;;28.10;74.10;;;;;;1923316;74;21599;-82
2023/03/19 01:07:22;;;;;;;67.10;51.40;;;28.10;73.80;;;;;;1879939;75;21124;-85
2023/03/19 01:09:56;;;;;;;64.32;50.83;;;28.10;73.90;;;;;;1883149;75;21285;-85
2023/03/19 01:12:27;;;;;;;66.80;50.05;;;28.10;73.90;;;;;;1886687;75;21140;-84
2023/03/19 01:14:59;;;;;;;65.42;49.38;;;28.20;73.70;;;;;;1912418;75;21088;-83
2023/03/19 01:17:48;;;;;;;64.53;51.13;;;28.20;74.00;;;;;;1878674;75;21127;-84
2023/03/19 01:20:54;;;;;;;62.93;50.90;;;28.20;73.30;;;;;;1880751;75;21412;-84
2023/03/19 01:23:43;;;;;;;63.30;50.33;;;28.20;73.10;;;;;;1883923;74;21197;-83
2023/03/19 01:26:32;;;;;;;64.12;50.45;;;28.20;73.40;;;;;;1912078;75;21426;-84
2023/03/19 01:29:26;;;;;;;63.15;50.12;;;28.20;73.60;;;;;;1903802;75;21092;-82
2023/03/19 01:32:13;;;;;;;66.07;50.48;;;28.20;73.50;;;;;;1867775;75;21116;-84
2023/03/19 01:35:14;;;;;;;64.87;50.75;;;28.30;73.60;;;;;;1894021;74;21144;-84
2023/03/19 01:38:15;;;;;;;64.70;51.18;;;28.30;73.70;;;;;;1866452;74;21210;-83
2023/03/19 01:41:05;;;;;;;66.53;50.88;;;28.40;73.50;;;;;;1877497;75;21170;-84
2023/03/19 01:43:55;;;;;;;62.93;48.28;;;28.50;73.40;;;;;;1882198;74;21167;-82
2023/03/19 01:46:45;;;;;;;62.25;48.92;;;28.60;73.20;;;;;;1922126;73;21115;-84
2023/03/19 01:49:34;;;;;;;73.10;51.65;;;28.60;72.90;;;;;;1896863;74;21550;-83
2023/03/19 01:52:10;;;;;;;64.75;51.33;;;28.70;72.50;;;;;;1893001;74;21171;-83
2023/03/19 01:55:01;;;;;;;63.92;51.80;;;28.70;72.30;;;;;;1900846;74;21271;-84
2023/03/19 01:58:03;;;;;;;66.15;51.25;;;28.70;72.30;;;;;;1901670;74;21568;-83
2023/03/19 02:00:57;;;;;;;61.55;51.15;;;28.70;71.60;;;;;;1905618;74;21098;-84
2023/03/19 02:03:46;;;;;;;64.53;50.35;;;28.70;71.70;;;;;;1888378;74;21229;-82
2023/03/19 02:06:34;;;;;;;61.92;49.70;;;28.80;71.40;;;;;;1896760;74;21154;-83
2023/03/19 02:09:35;;;;;;;63.25;51.68;;;28.90;71.50;;;;;;1879172;75;21111;-82
2023/03/19 02:12:28;;;;;;;66.00;48.90;;;29.00;71.30;;;;;;1903955;74;21080;-81
2023/03/19 02:15:19;;;;;;;62.27;50.55;;;29.10;71.00;;;;;;1877350;75;21104;-81
2023/03/19 02:17:53;;;;;;;60.58;51.00;;;29.20;70.50;;;;;;1897972;74;21501;-81
2023/03/19 02:20:53;;;;;;;64.45;50.78;;;29.30;70.50;;;;;;1903028;74;21123;-81
2023/03/19 02:23:47;;;;;;;67.37;52.03;;;29.30;70.20;;;;;;1872219;77;21182;-82
2023/03/19 02:26:38;;;;;;;59.70;49.70;;;29.40;70.10;;;;;;1914590;74;21136;-83
2023/03/19 02:29:17;;;;;;;68.52;53.58;;;29.50;71.10;;;;;;1938906;73;21153;-83
2023/03/19 02:31:51;;;;;;;64.58;53.83;;;29.60;70.30;;;;;;1933759;74;21126;-83
2023/03/19 02:34:34;;;;;;;65.87;53.30;;;29.70;69.90;;;;;;1884993;74;21198;-82
2023/03/19 02:37:30;;;;;;;68.90;53.90;;;29.80;70.10;;;;;;1906042;74;21162;-81
2023/03/19 02:40:31;;;;;;;63.08;52.55;;;29.90;69.90;;;;;;1921675;74;21889;-82
2023/03/19 02:43:05;;;;;;;70.22;53.23;;;30.00;70.20;;;;;;1902688;74;21148;-82
2023/03/19 02:45:55;;;;;;;68.52;56.10;;;30.10;69.30;;;;;;1897394;75;21204;-86
2023/03/19 02:48:49;;;;;;;65.12;53.08;;;30.20;69.50;;;;;;1896544;75;21521;-83
2023/03/19 02:51:38;;;;;;;64.95;52.70;;;30.20;69.70;;;;;;1914446;74;21245;-83
2023/03/19 02:54:31;;;;;;;71.05;54.20;;;30.30;69.90;;;;;;1904263;74;21130;-83
2023/03/19 02:57:09;;;;;;;63.80;52.70;;;30.40;69.70;;;;;;1885290;74;21122;-85
2023/03/19 02:59:59;;;;;;;70.65;53.60;;;30.60;69.40;;;;;;1828108;77;21221;-85
2023/03/19 03:02:48;;;;;;;71.62;56.20;;;30.70;68.60;;;;;;1858537;77;21103;-85
2023/03/19 03:05:38;;;;;;;68.45;54.13;;;30.80;68.10;;;;;;1854118;75;21211;-86
2023/03/19 03:08:27;;;;;;;65.60;52.50;;;30.90;67.60;;;;;;1836848;76;21642;-85
2023/03/19 03:11:16;;;;;;;72.67;51.88;;;31.00;67.30;;;;;;1841903;76;22045;-85
2023/03/19 03:14:05;;;;;;;66.12;52.58;;;31.00;67.20;;;;;;1826347;77;21602;-88
2023/03/19 03:16:56;;;;;;;66.65;51.48;;;31.10;67.00;;;;;;1839631;77;21202;-85
2023/03/19 03:19:48;;;;;;;64.27;52.67;;;31.20;66.20;;;;;;1859093;76;21227;-85
2023/03/19 03:22:40;;;;;;;66.80;53.23;;;31.40;66.00;;;;;;1832210;77;21276;-85
2023/03/19 03:25:18;;;;;;;71.12;52.25;;;31.60;64.90;;;;;;1824896;77;21256;-85
2023/03/19 03:28:04;;;;;;;64.72;52.98;;;31.60;65.00;;;;;;1851260;77;21260;-86
2023/03/19 03:30:59;;;;;;;64.50;52.17;;;31.80;65.50;;;;;;1854157;77;21147;-85
2023/03/19 03:33:49;;;;;;;67.90;53.77;;;31.90;64.60;;;;;;1821955;79;21256;-86
2023/03/19 03:36:29;;;;;;;61.55;50.33;;;32.00;63.70;;;;;;1852334;76;21341;-85
2023/03/19 03:39:00;;;;;;;60.98;50.08;;;32.10;63.40;;;;;;1812965;77;21201;-86
2023/03/19 03:41:32;;;;;;;61.08;48.10;;;32.10;63.00;;;;;;1775444;80;21182;-85
2023/03/19 03:44:02;;;;;;;60.25;48.20;;;32.20;62.40;;;;;;1805885;78;21224;-86
2023/03/19 03:46:34;;;;;;;59.65;48.00;;;32.30;61.70;;;;;;1775386;79;21166;-87
2023/03/19 03:49:06;;;;;;;53.55;47.05;;;32.40;61.20;;;;;;1785168;80;21371;-88
2023/03/19 03:51:45;;;;;;;62.17;47.17;;;32.50;60.40;;;;;;1832756;77;21158;-87
2023/03/19 03:54:16;;;;;;;56.05;45.15;;;32.70;59.80;;;;;;1849438;76;21107;-87
2023/03/19 03:56:49;;;;;;;54.00;45.20;;;32.70;59.70;;;;;;1841267;77;21149;-85
2023/03/19 03:59:20;;;;;;;55.73;46.88;;;32.80;59.70;;;;;;1841408;78;21156;-86
2023/03/19 04:01:51;;;;;;;58.73;45.40;;;32.90;59.00;;;;;;1841464;78;21151;-85
2023/03/19 04:04:22;;;;;;;54.08;47.08;;;33.00;59.00;;;;;;1862356;75;21139;-86
2023/03/19 04:06:53;;;;;;;59.65;47.73;;;33.00;59.10;;;;;;1867588;75;21132;-86
2023/03/19 04:09:25;;;;;;;57.10;45.83;;;33.10;59.10;;;;;;1876181;76;21168;-86
2023/03/19 04:11:56;;;;;;;50.67;44.93;;;33.20;58.50;;;;;;1886948;76;21488;-86
2023/03/19 04:14:27;;;;;;;58.08;46.40;;;33.20;58.90;;;;;;1897195;75;21567;-86
2023/03/19 04:16:58;;;;;;;57.93;43.00;;;33.30;58.60;;;;;;1872131;76;21239;-86
2023/03/19 04:19:29;;;;;;;52.40;45.12;;;33.30;58.70;;;;;;1871813;75;21095;-87
2023/03/19 04:22:02;;;;;;;74.25;49.67;;;33.40;58.80;;;;;;1897869;75;21087;-86
2023/03/19 04:24:32;;;;;;;92.15;48.68;;;33.40;58.70;;;;;;1876216;75;21143;-87
2023/03/19 04:27:03;;;;;;;60.80;46.18;;;33.50;58.50;;;;;;1848259;76;21157;-85
2023/03/19 04:29:34;;;;;;;67.12;43.63;;;33.50;59.30;;;;;;1936835;74;21111;-86
2023/03/19 04:32:06;;;;;;;57.55;44.58;;;33.60;58.20;;;;;;1941372;74;21197;-85
2023/03/19 04:34:36;;;;;;;62.73;44.20;;;33.70;57.70;;;;;;1909163;74;21378;-84
2023/03/19 04:37:09;;;;;;;65.55;43.40;;;33.70;57.80;;;;;;1814972;78;21163;-86
2023/03/19 04:39:40;;;;;;;56.13;44.08;;;33.90;57.70;;;;;;1841417;77;21695;-85
2023/03/19 04:42:11;;;;;;;51.90;43.02;;;34.00;57.80;;;;;;1889530;75;21908;-86
2023/03/19 04:44:42;;;;;;;58.17;45.50;;;34.00;57.40;;;;;;1826218;78;21210;-85
2023/03/19 04:47:13;;;;;;;50.83;41.60;;;34.10;57.50;;;;;;1890746;75;21147;-85
2023/03/19 04:49:44;;;;;;;56.10;44.73;;;34.10;57.10;;;;;;1891313;74;21116;-86
2023/03/19 04:52:15;;;;;;;57.53;42.88;;;34.20;57.40;;;;;;1902061;75;21206;-86
2023/03/19 04:54:46;;;;;;;59.98;43.98;;;34.30;57.20;;;;;;1900575;75;21132;-85
2023/03/19 04:57:17;;;;;;;54.48;43.73;;;34.40;57.50;;;;;;1826411;78;21156;-85
2023/03/19 04:59:48;;;;;;;56.02;43.35;;;34.40;56.80;;;;;;1901210;75;21136;-85
2023/03/19 05:02:19;;;;;;;55.28;44.35;;;34.50;56.00;;;;;;1898512;74;21567;-84
2023/03/19 05:04:50;;;;;;;63.05;45.58;;;34.60;55.90;;;;;;1896411;74;21190;-87
2023/03/19 05:07:23;;;;;;;45.90;39.40;;;34.60;56.10;;;;;;1796139;78;21140;-84
2023/03/19 05:09:57;;;;;;;55.03;41.68;;;34.60;55.50;;;;;;1897271;75;21590;-84
2023/03/19 05:12:29;;;;;;;;;;;34.60;55.50;;;;;;1877657;76;21077;-85
2023/03/19 05:15:00;;;;;;;47.60;39.40;;;34.60;58.00;;;;;;1867733;76;20213;-86
2023/03/19 05:17:31;;;;;;;44.85;39.95;;;34.60;55.90;;;;;;1882532;75;21214;-85
2023/03/19 05:20:08;;;;;;;42.78;36.15;;;34.50;56.20;;;;;;1860663;76;21209;-85
2023/03/19 05:22:38;;;;;;;44.55;38.13;;;34.60;56.00;;;;;;1824635;78;21210;-87
2023/03/19 05:25:09;;;;;;;45.15;37.50;;;34.60;55.90;;;;;;1840190;76;21135;-87
2023/03/19 05:27:41;;;;;;;44.30;37.20;;;34.70;55.60;;;;;;1923335;75;21024;-85
2023/03/19 05:30:12;;;;;;;53.90;42.03;;;34.80;55.60;;;;;;1887697;74;21164;-85
2023/03/19 05:32:52;;;;;;;40.45;33.05;;;34.80;56.50;;;;;;1903487;75;21135;-85
2023/03/19 05:35:23;;;;;;;41.92;33.85;;;35.00;54.60;;;;;;1917783;74;21131;-87
2023/03/19 05:37:54;;;;;;;42.08;36.50;;;35.00;54.70;;;;;;1907697;74;21080;-85
2023/03/19 05:40:27;;;;;;;48.28;42.85;;;35.00;55.00;;;;;;1833385;77;21108;-82
2023/03/19 05:43:01;;;;;;;56.90;43.37;;;35.00;56.30;;;;;;1862560;76;21080;-84
2023/03/19 05:45:32;;;;;;;50.83;42.60;;;35.00;56.50;;;;;;1832893;76;21145;-84
2023/03/19 05:48:05;;;;;;;56.23;44.67;;;35.00;56.50;;;;;;1835788;77;21091;-83
2023/03/19 05:50:37;;;;;;;51.85;42.90;;;34.80;56.70;;;;;;1820993;78;21258;-84
2023/03/19 05:53:08;;;;;;;54.48;43.28;;;34.70;56.70;;;;;;1832383;76;21168;-84
2023/03/19 05:55:39;;;;;;;43.65;36.42;;;34.60;56.70;;;;;;1829828;78;21156;-84
2023/03/19 05:58:10;;;;;;;48.00;37.70;;;34.50;55.50;;;;;;1801047;78;21282;-84
2023/03/19 06:00:41;;;;;;;49.13;37.53;;;34.50;55.80;;;;;;1813285;79;21136;-85
2023/03/19 06:03:12;;;;;;;42.48;35.78;;;34.60;54.90;;;;;;1845597;76;21189;-85
2023/03/19 06:05:43;;;;;;;41.20;34.45;;;34.80;54.30;;;;;;1853660;76;21170;-85
2023/03/19 06:08:18;;;;;;;45.33;35.60;;;34.90;54.10;;;;;;1833168;78;21107;-87
2023/03/19 06:10:49;;;;;;;42.48;34.03;;;35.10;54.20;;;;;;1834173;77;21218;-85
2023/03/19 06:13:20;;;;;;;38.70;34.43;;;35.20;52.70;;;;;;1937162;73;21130;-85
2023/03/19 06:15:51;;;;;;;39.63;33.85;;;35.30;52.40;;;;;;1800503;78;21167;-86
2023/03/19 06:18:22;;;;;;;40.20;35.23;;;35.30;51.90;;;;;;1813190;79;21203;-85
2023/03/19 06:20:53;;;;;;;104.67;45.15;;;35.40;51.80;;;;;;1827892;76;21179;-85
2023/03/19 06:23:26;;;;;;;40.38;33.38;;;35.50;51.80;;;;;;1880637;75;21192;-85
2023/03/19 06:25:56;;;;;;;40.17;33.48;;;35.50;51.40;;;;;;1914588;74;21919;-85
2023/03/19 06:28:27;;;;;;;44.88;34.73;;;35.50;51.70;;;;;;1912768;74;21135;-83
2023/03/19 06:30:59;;;;;;;37.83;32.58;;;35.50;52.30;;;;;;1885564;75;21347;-85
2023/03/19 06:33:38;;;;;;;45.78;33.50;;;35.60;51.90;;;;;;1934721;74;21128;-83
2023/03/19 06:36:07;;;;;;;35.33;31.60;;;35.60;51.90;;;;;;1833061;78;21091;-84
2023/03/19 06:38:38;;;;;;;35.52;30.60;;;35.60;50.70;;;;;;1803852;78;21301;-75
2023/03/19 06:41:09;;;;;;;40.48;34.25;;;35.60;50.90;;;;;;1828030;76;21183;-77
2023/03/19 06:43:41;;;;;;;33.58;29.85;;;35.70;51.10;;;;;;1857682;75;21158;-83
2023/03/19 06:46:12;;;;;;;39.95;31.85;;;35.70;50.70;;;;;;1860788;77;21148;-83
2023/03/19 06:48:43;;;;;;;33.42;30.00;;;35.80;51.30;;;;;;1814798;78;21155;-83
2023/03/19 06:51:14;;;;;;;42.73;30.97;;;35.80;50.30;;;;;;1901588;73;21154;-82
2023/03/19 06:53:46;;;;;;;35.90;29.90;;;35.80;50.30;;;;;;1893876;74;21077;-82
2023/03/19 06:56:17;;;;;;;34.27;30.25;;;35.80;51.00;;;;;;1882418;74;21154;-83
2023/03/19 06:58:48;;;;;;;34.25;30.55;;;35.80;50.90;;;;;;1894079;76;21034;-82
2023/03/19 07:01:21;;;;;;;33.55;30.02;;;35.70;50.90;;;;;;1896239;74;21183;-83
2023/03/19 07:03:52;;;;;;;34.38;29.45;;;35.60;51.40;;;;;;1916343;74;21162;-83
2023/03/19 07:06:25;;;;;;;34.18;30.50;;;35.60;51.40;;;;;;1931453;74;21114;-81
2023/03/19 07:08:57;;;;;;;37.60;31.10;;;35.50;50.70;;;;;;1862044;75;21098;-83
2023/03/19 07:11:44;;;;;;;41.28;33.15;;;35.60;50.40;;;;;;1865396;76;21151;-83
2023/03/19 07:14:05;;;;;;;40.20;32.30;;;35.60;50.90;;;;;;1830036;78;21095;-85
2023/03/19 07:16:38;;;;;;;35.30;30.25;;;35.60;50.80;;;;;;1847125;76;21153;-84
2023/03/19 07:19:09;;;;;;;35.63;30.90;;;35.50;51.40;;;;;;1847601;77;21216;-85
2023/03/19 07:21:40;;;;;;;45.08;34.35;;;35.30;52.00;;;;;;1912506;74;21076;-83
2023/03/19 07:24:11;;;;;;;39.30;32.38;;;35.20;52.30;;;;;;1892522;74;21094;-85
2023/03/19 07:26:42;;;;;;;39.70;32.80;;;35.00;52.30;;;;;;1919681;74;21071;-84
2023/03/19 07:29:13;;;;;;;32.17;28.70;;;34.90;52.60;;;;;;1893752;74;21597;-84
2023/03/19 07:31:44;;;;;;;40.50;35.55;;;34.90;52.90;;;;;;1891437;76;21391;-84
2023/03/19 07:34:17;;;;;;;37.95;32.85;;;34.90;53.30;;;;;;1891842;76;21073;-83
2023/03/19 07:36:47;;;;;;;39.03;31.35;;;34.90;53.00;;;;;;1896294;74;21081;-85
2023/03/19 07:39:19;;;;;;;33.67;28.30;;;34.80;53.30;;;;;;1915393;73;21165;-84
2023/03/19 07:41:50;;;;;;;32.45;28.87;;;34.70;53.00;;;;;;1917142;74;21182;-85
2023/03/19 07:44:22;;;;;;;31.77;28.42;;;34.70;52.90;;;;;;1862215;75;21106;-84
2023/03/19 07:46:53;;;;;;;33.25;29.65;;;34.60;53.30;;;;;;1873012;75;21181;-84
2023/03/19 07:49:24;;;;;;;33.67;29.63;;;34.50;53.50;;;;;;1864234;75;21142;-84
2023/03/19 07:51:55;;;;;;;39.33;33.35;;;34.40;53.60;;;;;;1880519;75;21091;-85
2023/03/19 07:54:26;;;;;;;39.45;32.42;;;34.40;53.90;;;;;;1833244;77;21154;-85
2023/03/19 07:56:57;;;;;;;34.55;30.52;;;34.30;54.20;;;;;;1841892;77;21929;-82
2023/03/19 07:59:28;;;;;;;43.50;38.20;;;34.30;54.10;;;;;;1863717;76;21244;-82
2023/03/19 08:01:59;;;;;;;36.17;30.97;;;34.20;54.30;;;;;;1919028;74;21153;-82
2023/03/19 08:04:30;;;;;;;36.58;30.55;;;34.20;54.90;;;;;;1829577;77;21902;-81
2023/03/19 08:07:01;;;;;;;54.50;31.60;;;34.20;55.30;;;;;;1860868;76;21152;-81
2023/03/19 08:09:35;;;;;;;36.40;30.45;;;34.20;55.70;;;;;;1941767;74;21539;-81
2023/03/19 08:12:08;;;;;;;36.80;31.50;;;34.20;55.90;;;;;;1866600;75;21689;-81
2023/03/19 08:14:39;;;;;;;40.50;34.38;;;34.10;56.30;;;;;;1879290;75;21134;-82
2023/03/19 08:17:10;;;;;;;43.20;36.85;;;34.00;57.00;;;;;;1857073;75;21162;-81
2023/03/19 08:19:41;;;;;;;45.15;36.73;;;34.00;57.80;;;;;;1825690;78;21156;-80
2023/03/19 08:22:12;;;;;;;43.13;35.45;;;34.00;57.90;;;;;;1883525;76;21219;-81
2023/03/19 08:24:43;;;;;;;48.70;37.58;;;34.00;58.20;;;;;;1880722;74;21152;-82
2023/03/19 08:27:14;;;;;;;45.73;36.05;;;34.10;58.00;;;;;;1884678;74;21089;-82
2023/03/19 08:29:45;;;;;;;44.08;36.00;;;34.10;57.90;;;;;;1879254;76;21458;-81
2023/03/19 08:32:20;;;;;;;39.23;35.13;;;34.10;58.10;;;;;;1872085;76;21139;-82
2023/03/19 08:34:50;;;;;;;41.33;35.63;;;34.20;58.50;;;;;;1870696;76;21203;-81
2023/03/19 08:37:27;;;;;;;44.27;33.65;;;34.20;58.00;;;;;;1883019;76;21162;-80
2023/03/19 08:39:57;;;;;;;41.95;32.45;;;34.30;57.80;;;;;;1881373;76;21330;-84
2023/03/19 08:42:28;;;;;;;37.75;33.60;;;34.30;57.50;;;;;;1894557;75;21667;-82
2023/03/19 08:44:58;;;;;;;37.58;31.55;;;34.40;57.50;;;;;;1814416;77;21792;-79
2023/03/19 08:47:30;;;;;;;40.80;35.15;;;34.40;57.20;;;;;;1852515;76;21214;-80
2023/03/19 08:50:00;;;;;;;41.63;35.75;;;34.50;58.50;;;;;;1870645;76;21252;-79
2023/03/19 08:52:32;;;;;;;37.93;31.50;;;34.50;57.80;;;;;;1837213;77;21728;-82
2023/03/19 08:55:03;;;;;;;38.92;34.58;;;34.50;57.50;;;;;;1824024;77;21269;-82
2023/03/19 08:57:34;;;;;;;42.15;36.17;;;34.50;57.60;;;;;;1885795;74;21269;-81
2023/03/19 09:00:06;;;;;;;39.73;34.80;;;34.50;57.80;;;;;;1905729;74;21131;-81
2023/03/19 09:02:37;;;;;;;42.05;35.25;;;34.50;57.90;;;;;;1916862;74;21141;-81
2023/03/19 09:05:09;;;;;;;40.88;34.50;;;34.50;58.70;;;;;;1926454;74;21518;-81
2023/03/19 09:07:41;;;;;;;41.45;34.85;;;34.50;58.10;;;;;;1889692;74;21219;-82
2023/03/19 09:10:14;;;;;;;44.60;37.28;;;34.40;58.10;;;;;;1892609;76;21081;-81
2023/03/19 09:12:49;;;;;;;;;;;34.40;58.10;;;;;;1898136;74;21559;-81
2023/03/19 09:15:21;;;;;;;39.65;34.67;;;34.40;58.20;;;;;;1904297;74;20185;-80
2023/03/19 09:17:52;;;;;;;38.70;32.38;;;34.40;58.00;;;;;;1907091;74;21205;-79
2023/03/19 09:20:23;;;;;;;43.33;32.50;;;34.40;57.80;;;;;;1895210;74;21138;-81
2023/03/19 09:22:54;;;;;;;36.15;32.10;;;34.40;57.60;;;;;;1907993;74;21244;-84
2023/03/19 09:25:25;;;;;;;36.60;32.00;;;34.30;57.50;;;;;;1911804;74;21158;-82
2023/03/19 09:27:56;;;;;;;42.75;34.05;;;34.30;57.20;;;;;;1869780;75;21482;-80
2023/03/19 09:30:27;;;;;;;44.60;32.80;;;34.30;57.30;;;;;;1871122;75;21840;-77
2023/03/19 09:32:59;;;;;;;60.23;40.73;;;34.20;57.70;;;;;;1865377;75;21200;-76
2023/03/19 09:35:31;;;;;;;47.48;36.05;;;34.20;58.10;;;;;;1871536;76;21131;-77
2023/03/19 09:38:03;;;;;;;45.00;35.03;;;34.10;58.20;;;;;;1904693;74;21206;-75
2023/03/19 09:40:46;;;;;;;40.75;34.43;;;34.10;59.10;;;;;;1825611;77;21573;-75
2023/03/19 09:43:29;;;;;;;45.78;35.48;;;34.10;59.10;;;;;;1837854;77;21148;-76
2023/03/19 09:46:02;;;;;;;41.92;34.75;;;34.00;59.10;;;;;;1855915;76;21318;-76
2023/03/19 09:48:36;;;;;;;50.03;34.92;;;34.00;59.20;;;;;;1874955;76;21438;-78
2023/03/19 09:51:13;;;;;;;39.23;34.50;;;33.90;59.50;;;;;;1879039;76;21230;-76
2023/03/19 09:53:58;;;;;;;39.80;34.00;;;33.90;59.60;;;;;;1874396;74;21176;-77
2023/03/19 09:56:29;;;;;;;;;;;33.80;59.80;;;;;;1890830;74;21120;-77
2023/03/19 09:59:02;;;;;;;46.92;36.93;;;33.80;59.50;;;;;;1883793;76;20245;-76
2023/03/19 10:01:36;;;;;;;47.65;36.13;;;33.80;59.80;;;;;;1880893;76;21123;-76
2023/03/19 10:04:36;;;;;;;42.70;35.03;;;33.70;59.90;;;;;;1886036;74;21182;-77
2023/03/19 10:07:41;;;;;;;45.12;33.98;;;33.70;60.10;;;;;;1868089;76;21349;-76
2023/03/19 10:10:21;;;;;;;50.30;36.42;;;33.70;59.80;;;;;;1872961;74;21144;-76
2023/03/19 10:13:15;;;;;;;42.10;34.83;;;33.60;60.00;;;;;;1833266;77;21264;-76
2023/03/19 10:15:47;;;;;;;39.65;33.92;;;33.60;60.00;;;;;;1794840;79;21134;-76
2023/03/19 10:18:21;;;;;;;40.00;35.23;;;33.60;60.10;;;;;;1852720;76;21180;-75
2023/03/19 10:21:01;;;;;;;41.28;33.70;;;33.60;60.30;;;;;;1826958;77;21180;-75
2023/03/19 10:23:34;;;;;;;42.83;35.13;;;33.50;60.30;;;;;;1837058;77;21197;-86
2023/03/19 10:26:08;;;;;;;44.53;35.15;;;33.50;60.50;;;;;;1897754;75;21179;-80
2023/03/19 10:28:41;;;;;;;41.15;34.67;;;33.50;60.50;;;;;;1814537;78;21209;-81
2023/03/19 10:31:26;;;;;;;39.95;34.08;;;33.50;60.70;;;;;;1840679;76;21120;-82
2023/03/19 10:34:35;;;;;;;40.85;35.03;;;33.50;60.90;;;;;;1845864;77;21171;-82
2023/03/19 10:37:04;;;;;;;47.13;35.17;;;33.40;61.10;;;;;;1742489;80;21290;-82
2023/03/19 10:39:37;;;;;;;42.15;34.73;;;33.40;61.20;;;;;;1708722;81;21275;-82
2023/03/19 10:42:26;;;;;;;43.73;35.63;;;33.40;61.60;;;;;;1794158;77;21175;-82
2023/03/19 10:45:04;;;;;;;53.78;39.27;;;33.30;61.60;;;;;;1818718;78;21686;-81
2023/03/19 10:47:39;;;;;;;44.15;37.45;;;33.30;61.80;;;;;;1858928;75;21158;-84
2023/03/19 10:50:19;;;;;;;49.87;39.73;;;33.30;61.90;;;;;;1850580;77;21167;-84
2023/03/19 10:52:55;;;;;;;43.02;37.25;;;33.30;62.10;;;;;;1841328;76;21172;-82
2023/03/19 10:55:28;;;;;;;45.58;37.63;;;33.30;62.20;;;;;;1849456;77;21242;-81
2023/03/19 10:58:03;;;;;;;45.75;38.55;;;33.20;62.10;;;;;;1838408;76;21514;-82
2023/03/19 11:00:35;;;;;;;47.13;38.35;;;33.20;62.30;;;;;;1855163;76;21142;-83
2023/03/19 11:03:08;;;;;;;49.85;39.00;;;33.20;62.40;;;;;;1855686;76;21419;-82
2023/03/19 11:05:39;;;;;;;49.38;38.42;;;33.20;62.60;;;;;;1843454;76;21152;-82
2023/03/19 11:08:15;;;;;;;43.13;36.28;;;33.20;62.70;;;;;;1895796;74;21507;-82
2023/03/19 11:10:49;;;;;;;45.12;39.25;;;33.10;62.80;;;;;;1831030;77;21134;-82
2023/03/19 11:13:25;;;;;;;51.45;38.23;;;33.10;63.00;;;;;;1847516;76;21158;-83
2023/03/19 11:15:59;;;;;;;46.30;36.85;;;33.10;63.10;;;;;;1857755;77;21158;-82
2023/03/19 11:18:32;;;;;;;51.18;41.05;;;33.10;63.10;;;;;;1821100;77;21230;-82
2023/03/19 11:21:09;;;;;;;87.12;43.20;;;33.00;63.40;;;;;;1822970;77;21128;-82
2023/03/19 11:23:43;;;;;;;69.47;43.08;;;33.00;63.20;;;;;;1847474;75;21178;-81
2023/03/19 11:26:16;;;;;;;105.37;45.33;;;33.00;63.30;;;;;;1905380;74;21100;-82
2023/03/19 11:28:52;;;;;;;81.53;45.17;;;33.00;63.30;;;;;;1832324;78;21097;-81
2023/03/19 11:31:43;;;;;;;55.43;37.70;;;33.00;63.90;;;;;;1815232;78;21143;-81
2023/03/19 11:34:44;;;;;;;403.90;99.60;;;33.00;63.40;;;;;;1847871;76;21138;-81
2023/03/19 11:37:32;;;;;;;232.03;70.15;;;32.90;63.90;;;;;;1833389;78;21147;-81
2023/03/19 11:40:36;;;;;;;235.78;73.55;;;33.00;63.80;;;;;;1838460;78;21165;-80
2023/03/19 11:43:27;;;;;;;136.88;52.30;;;32.90;63.90;;;;;;1860364;76;21090;-80
2023/03/19 11:46:07;;;;;;;127.62;54.15;;;32.80;63.40;;;;;;1937977;74;21304;-81
2023/03/19 11:49:19;;;;;;;97.90;48.87;;;32.80;63.40;;;;;;1897793;75;21096;-80
2023/03/19 11:51:58;;;;;;;98.65;46.58;;;32.80;63.30;;;;;;1858589;75;21154;-80
2023/03/19 11:55:03;;;;;;;81.75;44.40;;;32.80;63.90;;;;;;1830169;75;21212;-81
2023/03/19 11:57:46;;;;;;;60.80;41.95;;;32.80;63.90;;;;;;1902085;74;21155;-81
2023/03/19 12:00:44;;;;;;;75.08;45.15;;;32.70;64.10;;;;;;1881796;74;21143;-82
2023/03/19 12:03:23;;;;;;;67.70;44.03;;;32.70;64.30;;;;;;1832997;76;21265;-81
2023/03/19 12:05:58;;;;;;;55.67;41.50;;;32.70;64.40;;;;;;1910528;75;21082;-81
2023/03/19 12:08:53;;;;;;;51.30;43.65;;;32.70;64.60;;;;;;1908056;75;21213;-81
2023/03/19 12:11:29;;;;;;;48.73;40.10;;;32.60;64.70;;;;;;1830126;76;21221;-81
2023/03/19 12:14:15;;;;;;;52.40;42.95;;;32.60;64.90;;;;;;1933520;74;21084;-81
2023/03/19 12:17:20;;;;;;;52.10;42.25;;;32.60;65.30;;;;;;1901781;74;21172;-81
2023/03/19 12:20:02;;;;;;;54.70;42.55;;;32.50;65.70;;;;;;1841464;76;21174;-81
2023/03/19 12:23:01;;;;;;;51.42;43.15;;;32.50;65.60;;;;;;1896071;74;21139;-81
2023/03/19 12:25:45;;;;;;;54.30;42.25;;;32.50;65.10;;;;;;1922963;74;21166;-81
2023/03/19 12:28:32;;;;;;;55.80;42.90;;;32.50;64.80;;;;;;1845546;76;21127;-80
2023/03/19 12:31:03;;;;;;;56.30;41.77;;;32.40;64.00;;;;;;1896472;74;21153;-80
2023/03/19 12:33:42;;;;;;;57.53;41.58;;;32.40;62.90;;;;;;1837144;76;21669;-82
2023/03/19 12:36:17;;;;;;;51.15;40.67;;;32.30;62.00;;;;;;1889883;74;21637;-82
2023/03/19 12:38:51;;;;;;;52.90;40.58;;;32.30;61.60;;;;;;1872598;75;21594;-81
2023/03/19 12:41:27;;;;;;;52.15;40.58;;;32.30;61.80;;;;;;1848922;76;21169;-80
2023/03/19 12:44:07;;;;;;;51.80;41.92;;;32.30;61.90;;;;;;1876855;74;21613;-81
2023/03/19 12:46:38;;;;;;;58.17;44.25;;;32.30;62.40;;;;;;1891034;74;21189;-80
2023/03/19 12:54:44;;;;;;;50.88;37.75;;;32.10;63.40;;;;;;1665867;82;21302;-82
2023/03/19 13:00:39;;;;;;;55.67;39.63;;;32.00;64.20;;;;;;1751800;80;21293;-78
2023/03/19 13:03:41;;;;;;;48.98;38.25;;;31.90;64.30;;;;;;1885638;74;21173;-79
2023/03/19 13:06:14;;;;;;;51.50;37.63;;;31.90;64.70;;;;;;1886420;75;21156;-81
2023/03/19 13:08:56;;;;;;;51.50;38.75;;;31.80;64.70;;;;;;1810177;77;21153;-79
2023/03/19 13:11:47;;;;;;;52.35;38.13;;;31.80;65.00;;;;;;1875170;75;21650;-80
2023/03/19 13:15:15;;;;;;;50.35;37.35;;;31.70;65.20;;;;;;1869184;74;21415;-81
2023/03/19 13:17:35;;;;;;;50.25;37.13;;;31.60;65.40;;;;;;1865551;74;21104;-80
2023/03/19 13:20:53;;;;;;;50.35;37.45;;;31.50;65.80;;;;;;1892358;75;21143;-80
2023/03/19 13:23:29;;;;;;;47.40;37.40;;;31.40;65.90;;;;;;1819151;78;21154;-77
2023/03/19 13:26:03;;;;;;;52.15;35.25;;;31.40;66.20;;;;;;1887603;74;21234;-80
2023/03/19 13:28:36;;;;;;;48.85;36.90;;;31.30;66.10;;;;;;1803425;78;22021;-80
2023/03/19 13:31:15;;;;;;;53.02;36.00;;;31.30;66.30;;;;;;1876582;75;21110;-79